sensor_id;sensor_type;location;lat;lon;timestamp;P1;durP1;ratioP1;P2;durP2;ratioP2
69951;SDS011;60406;48.408;13.392;2023-09-12T00:04:24;16.83;;;13.38;;
69951;SDS011;60406;48.408;13.392;2023-09-12T00:09:25;16.55;;;14.40;;
69951;SDS011;60406;48.408;13.392;2023-09-12T00:14:26;13.52;;;11.95;;
69951;SDS011;60406;48.408;13.392;2023-09-12T00:19:27;13.55;;;12.20;;
69951;SDS011;60406;48.408;13.392;2023-09-12T00:24:27;13.77;;;12.48;;
69951;SDS011;60406;48.408;13.392;2023-09-12T00:29:29;14.57;;;12.95;;
69951;SDS011;60406;48.408;13.392;2023-09-12T00:34:29;21.48;;;14.55;;
69951;SDS011;60406;48.408;13.392;2023-09-12T00:39:30;18.73;;;16.92;;
69951;SDS011;60406;48.408;13.392;2023-09-12T00:44:31;38.45;;;18.38;;
69951;SDS011;60406;48.408;13.392;2023-09-12T00:49:32;17.23;;;14.80;;
69951;SDS011;60406;48.408;13.392;2023-09-12T00:54:34;19.55;;;17.02;;
69951;SDS011;60406;48.408;13.392;2023-09-12T00:59:34;20.02;;;16.90;;
69951;SDS011;60406;48.408;13.392;2023-09-12T02:02:02;24.35;;;21.80;;
69951;SDS011;60406;48.408;13.392;2023-09-12T02:07:03;20.38;;;18.35;;
69951;SDS011;60406;48.408;13.392;2023-09-12T02:12:04;19.98;;;17.88;;
69951;SDS011;60406;48.408;13.392;2023-09-12T02:17:05;21.70;;;19.42;;
69951;SDS011;60406;48.408;13.392;2023-09-12T02:22:06;39.40;;;17.60;;
69951;SDS011;60406;48.408;13.392;2023-09-12T02:27:06;127.47;;;18.98;;
69951;SDS011;60406;48.408;13.392;2023-09-12T02:32:07;122.45;;;21.10;;
69951;SDS011;60406;48.408;13.392;2023-09-12T02:37:09;66.18;;;19.13;;
69951;SDS011;60406;48.408;13.392;2023-09-12T02:42:09;30.08;;;19.02;;
69951;SDS011;60406;48.408;13.392;2023-09-12T02:47:10;129.50;;;21.98;;
69951;SDS011;60406;48.408;13.392;2023-09-12T02:52:11;218.52;;;24.77;;
69951;SDS011;60406;48.408;13.392;2023-09-12T02:57:12;96.43;;;23.60;;
69951;SDS011;60406;48.408;13.392;2023-09-12T03:02:13;32.58;;;22.10;;
69951;SDS011;60406;48.408;13.392;2023-09-12T03:07:14;26.42;;;21.92;;
69951;SDS011;60406;48.408;13.392;2023-09-12T03:12:15;23.55;;;21.15;;
69951;SDS011;60406;48.408;13.392;2023-09-12T03:17:16;22.00;;;19.48;;
69951;SDS011;60406;48.408;13.392;2023-09-12T03:22:17;22.38;;;18.38;;
69951;SDS011;60406;48.408;13.392;2023-09-12T03:27:18;22.95;;;20.08;;
69951;SDS011;60406;48.408;13.392;2023-09-12T03:32:19;17.33;;;15.65;;
69951;SDS011;60406;48.408;13.392;2023-09-12T03:37:19;19.13;;;17.13;;
69951;SDS011;60406;48.408;13.392;2023-09-12T03:42:20;18.40;;;16.45;;
69951;SDS011;60406;48.408;13.392;2023-09-12T03:47:21;21.02;;;17.02;;
69951;SDS011;60406;48.408;13.392;2023-09-12T03:52:22;23.33;;;17.27;;
69951;SDS011;60406;48.408;13.392;2023-09-12T03:57:23;17.60;;;15.07;;
69951;SDS011;60406;48.408;13.392;2023-09-12T04:02:24;17.88;;;14.35;;
69951;SDS011;60406;48.408;13.392;2023-09-12T04:07:25;17.50;;;14.90;;
69951;SDS011;60406;48.408;13.392;2023-09-12T04:12:25;20.63;;;16.55;;
69951;SDS011;60406;48.408;13.392;2023-09-12T04:17:26;126.30;;;40.20;;
69951;SDS011;60406;48.408;13.392;2023-09-12T04:22:27;13.27;;;11.88;;
69951;SDS011;60406;48.408;13.392;2023-09-12T04:27:28;14.27;;;12.88;;
69951;SDS011;60406;48.408;13.392;2023-09-12T04:32:29;21.17;;;14.45;;
69951;SDS011;60406;48.408;13.392;2023-09-12T04:37:32;15.02;;;12.70;;
69951;SDS011;60406;48.408;13.392;2023-09-12T04:42:33;16.13;;;14.52;;
69951;SDS011;60406;48.408;13.392;2023-09-12T04:47:34;19.67;;;15.93;;
69951;SDS011;60406;48.408;13.392;2023-09-12T04:52:35;16.23;;;14.60;;
69951;SDS011;60406;48.408;13.392;2023-09-12T04:57:35;17.00;;;15.38;;
69951;SDS011;60406;48.408;13.392;2023-09-12T05:02:36;28.38;;;17.08;;
69951;SDS011;60406;48.408;13.392;2023-09-12T05:07:37;16.73;;;15.00;;
69951;SDS011;60406;48.408;13.392;2023-09-12T05:12:38;27.40;;;19.17;;
69951;SDS011;60406;48.408;13.392;2023-09-12T05:17:39;25.15;;;18.65;;
69951;SDS011;60406;48.408;13.392;2023-09-12T05:22:40;30.15;;;19.42;;
69951;SDS011;60406;48.408;13.392;2023-09-12T05:27:41;44.78;;;24.50;;
69951;SDS011;60406;48.408;13.392;2023-09-12T05:32:42;45.58;;;20.77;;
69951;SDS011;60406;48.408;13.392;2023-09-12T05:37:42;77.38;;;19.30;;
69951;SDS011;60406;48.408;13.392;2023-09-12T05:42:43;56.35;;;18.27;;
69951;SDS011;60406;48.408;13.392;2023-09-12T05:47:44;48.30;;;21.00;;
69951;SDS011;60406;48.408;13.392;2023-09-12T05:52:45;66.30;;;17.33;;
69951;SDS011;60406;48.408;13.392;2023-09-12T05:57:46;30.63;;;17.45;;
69951;SDS011;60406;48.408;13.392;2023-09-12T06:02:47;22.10;;;18.20;;
69951;SDS011;60406;48.408;13.392;2023-09-12T06:07:48;19.50;;;16.65;;
69951;SDS011;60406;48.408;13.392;2023-09-12T06:12:49;19.08;;;17.08;;
69951;SDS011;60406;48.408;13.392;2023-09-12T06:17:50;20.05;;;17.08;;
69951;SDS011;60406;48.408;13.392;2023-09-12T06:22:51;23.90;;;18.33;;
69951;SDS011;60406;48.408;13.392;2023-09-12T06:27:52;19.70;;;17.70;;
69951;SDS011;60406;48.408;13.392;2023-09-12T06:32:52;24.15;;;18.80;;
69951;SDS011;60406;48.408;13.392;2023-09-12T06:37:53;21.33;;;19.05;;
69951;SDS011;60406;48.408;13.392;2023-09-12T06:42:54;22.15;;;18.88;;
69951;SDS011;60406;48.408;13.392;2023-09-12T06:47:55;26.67;;;20.10;;
69951;SDS011;60406;48.408;13.392;2023-09-12T06:52:56;21.98;;;19.58;;
69951;SDS011;60406;48.408;13.392;2023-09-12T06:57:57;22.08;;;19.05;;
69951;SDS011;60406;48.408;13.392;2023-09-12T07:02:58;25.33;;;21.20;;
69951;SDS011;60406;48.408;13.392;2023-09-12T07:07:59;24.05;;;21.35;;
69951;SDS011;60406;48.408;13.392;2023-09-12T07:12:59;24.30;;;22.02;;
69951;SDS011;60406;48.408;13.392;2023-09-12T07:18:00;24.95;;;22.48;;
69951;SDS011;60406;48.408;13.392;2023-09-12T07:23:01;24.65;;;22.05;;
69951;SDS011;60406;48.408;13.392;2023-09-12T07:28:02;28.13;;;24.05;;
69951;SDS011;60406;48.408;13.392;2023-09-12T07:33:03;27.95;;;22.85;;
69951;SDS011;60406;48.408;13.392;2023-09-12T07:38:04;25.63;;;22.95;;
69951;SDS011;60406;48.408;13.392;2023-09-12T07:43:05;25.75;;;23.15;;
69951;SDS011;60406;48.408;13.392;2023-09-12T07:48:07;25.67;;;22.92;;
69951;SDS011;60406;48.408;13.392;2023-09-12T07:53:08;25.05;;;22.50;;
69951;SDS011;60406;48.408;13.392;2023-09-12T07:58:09;24.48;;;22.08;;
69951;SDS011;60406;48.408;13.392;2023-09-12T08:03:10;25.35;;;22.65;;
69951;SDS011;60406;48.408;13.392;2023-09-12T08:08:11;27.08;;;23.73;;
69951;SDS011;60406;48.408;13.392;2023-09-12T08:13:11;24.48;;;22.08;;
69951;SDS011;60406;48.408;13.392;2023-09-12T08:18:12;25.77;;;22.98;;
69951;SDS011;60406;48.408;13.392;2023-09-12T08:23:13;25.30;;;22.92;;
69951;SDS011;60406;48.408;13.392;2023-09-12T08:28:14;29.40;;;23.55;;
69951;SDS011;60406;48.408;13.392;2023-09-12T08:33:15;27.48;;;24.55;;
69951;SDS011;60406;48.408;13.392;2023-09-12T08:38:16;27.83;;;24.85;;
69951;SDS011;60406;48.408;13.392;2023-09-12T08:43:17;28.92;;;25.85;;
69951;SDS011;60406;48.408;13.392;2023-09-12T08:48:18;28.77;;;25.77;;
69951;SDS011;60406;48.408;13.392;2023-09-12T08:53:19;29.73;;;26.55;;
69951;SDS011;60406;48.408;13.392;2023-09-12T08:58:20;29.75;;;26.55;;
69951;SDS011;60406;48.408;13.392;2023-09-12T09:03:21;27.92;;;24.95;;
69951;SDS011;60406;48.408;13.392;2023-09-12T09:08:22;28.42;;;25.42;;
69951;SDS011;60406;48.408;13.392;2023-09-12T09:13:25;29.52;;;25.73;;
69951;SDS011;60406;48.408;13.392;2023-09-12T09:18:26;29.92;;;23.63;;
69951;SDS011;60406;48.408;13.392;2023-09-12T09:23:27;24.40;;;21.52;;
69951;SDS011;60406;48.408;13.392;2023-09-12T09:28:28;24.58;;;22.17;;
69951;SDS011;60406;48.408;13.392;2023-09-12T09:33:28;24.45;;;20.95;;
69951;SDS011;60406;48.408;13.392;2023-09-12T09:38:35;25.23;;;22.65;;
69951;SDS011;60406;48.408;13.392;2023-09-12T09:43:36;22.55;;;20.30;;
69951;SDS011;60406;48.408;13.392;2023-09-12T09:48:37;25.02;;;21.33;;
69951;SDS011;60406;48.408;13.392;2023-09-12T09:53:38;22.20;;;18.83;;
69951;SDS011;60406;48.408;13.392;2023-09-12T10:03:57;17.77;;;15.07;;
69951;SDS011;60406;48.408;13.392;2023-09-12T10:08:59;15.75;;;14.32;;
69951;SDS011;60406;48.408;13.392;2023-09-12T10:14:04;17.58;;;15.15;;
69951;SDS011;60406;48.408;13.392;2023-09-12T10:24:39;16.35;;;14.75;;
69951;SDS011;60406;48.408;13.392;2023-09-12T10:29:40;16.15;;;13.82;;
69951;SDS011;60406;48.408;13.392;2023-09-12T10:34:41;14.02;;;12.75;;
69951;SDS011;60406;48.408;13.392;2023-09-12T10:39:43;14.00;;;12.45;;
69951;SDS011;60406;48.408;13.392;2023-09-12T10:44:44;13.90;;;11.25;;
69951;SDS011;60406;48.408;13.392;2023-09-12T10:49:46;12.57;;;11.27;;
69951;SDS011;60406;48.408;13.392;2023-09-12T10:54:47;13.30;;;12.10;;
69951;SDS011;60406;48.408;13.392;2023-09-12T11:05:04;14.55;;;12.63;;
69951;SDS011;60406;48.408;13.392;2023-09-12T11:10:24;13.98;;;12.70;;
69951;SDS011;60406;48.408;13.392;2023-09-12T11:15:26;14.23;;;12.77;;
69951;SDS011;60406;48.408;13.392;2023-09-12T11:20:47;12.85;;;11.85;;
69951;SDS011;60406;48.408;13.392;2023-09-12T11:26:06;13.07;;;11.60;;
69951;SDS011;60406;48.408;13.392;2023-09-12T11:31:08;11.55;;;10.60;;
69951;SDS011;60406;48.408;13.392;2023-09-12T11:36:12;11.38;;;10.20;;
69951;SDS011;60406;48.408;13.392;2023-09-12T11:41:14;10.63;;;9.73;;
69951;SDS011;60406;48.408;13.392;2023-09-12T11:46:15;11.60;;;9.32;;
69951;SDS011;60406;48.408;13.392;2023-09-12T11:51:16;12.57;;;9.45;;
69951;SDS011;60406;48.408;13.392;2023-09-12T11:56:17;13.30;;;9.70;;
69951;SDS011;60406;48.408;13.392;2023-09-12T12:01:17;11.80;;;9.53;;
69951;SDS011;60406;48.408;13.392;2023-09-12T12:06:18;11.53;;;8.43;;
69951;SDS011;60406;48.408;13.392;2023-09-12T12:11:19;12.05;;;8.98;;
69951;SDS011;60406;48.408;13.392;2023-09-12T12:16:20;10.63;;;8.93;;
69951;SDS011;60406;48.408;13.392;2023-09-12T12:21:21;10.67;;;9.77;;
69951;SDS011;60406;48.408;13.392;2023-09-12T12:26:24;10.23;;;8.90;;
69951;SDS011;60406;48.408;13.392;2023-09-12T12:31:25;11.55;;;9.13;;
69951;SDS011;60406;48.408;13.392;2023-09-12T12:36:26;10.48;;;8.60;;
69951;SDS011;60406;48.408;13.392;2023-09-12T12:41:27;10.33;;;8.77;;
69951;SDS011;60406;48.408;13.392;2023-09-12T12:46:29;11.00;;;8.95;;
69951;SDS011;60406;48.408;13.392;2023-09-12T12:51:30;11.98;;;9.30;;
69951;SDS011;60406;48.408;13.392;2023-09-12T12:56:31;9.52;;;8.40;;
69951;SDS011;60406;48.408;13.392;2023-09-12T13:01:36;10.25;;;8.85;;
69951;SDS011;60406;48.408;13.392;2023-09-12T13:06:37;13.13;;;7.90;;
69951;SDS011;60406;48.408;13.392;2023-09-12T13:11:38;10.50;;;7.60;;
69951;SDS011;60406;48.408;13.392;2023-09-12T13:16:39;10.43;;;8.93;;
69951;SDS011;60406;48.408;13.392;2023-09-12T13:21:40;9.13;;;8.40;;
69951;SDS011;60406;48.408;13.392;2023-09-12T13:26:41;10.80;;;9.57;;
69951;SDS011;60406;48.408;13.392;2023-09-12T13:31:41;10.13;;;9.27;;
69951;SDS011;60406;48.408;13.392;2023-09-12T13:36:42;12.38;;;9.55;;
69951;SDS011;60406;48.408;13.392;2023-09-12T13:41:43;10.68;;;9.73;;
69951;SDS011;60406;48.408;13.392;2023-09-12T13:46:44;10.80;;;9.68;;
69951;SDS011;60406;48.408;13.392;2023-09-12T13:51:45;12.73;;;9.90;;
69951;SDS011;60406;48.408;13.392;2023-09-12T13:56:46;10.63;;;9.73;;
69951;SDS011;60406;48.408;13.392;2023-09-12T14:01:47;10.95;;;9.85;;
69951;SDS011;60406;48.408;13.392;2023-09-12T14:06:47;10.60;;;9.48;;
69951;SDS011;60406;48.408;13.392;2023-09-12T14:11:48;13.43;;;9.38;;
69951;SDS011;60406;48.408;13.392;2023-09-12T14:16:49;11.93;;;9.48;;
69951;SDS011;60406;48.408;13.392;2023-09-12T14:21:50;10.65;;;9.65;;
69951;SDS011;60406;48.408;13.392;2023-09-12T14:26:51;10.73;;;9.70;;
69951;SDS011;60406;48.408;13.392;2023-09-12T14:31:52;8.80;;;8.00;;
69951;SDS011;60406;48.408;13.392;2023-09-12T14:36:53;7.93;;;7.22;;
69951;SDS011;60406;48.408;13.392;2023-09-12T14:41:54;7.35;;;6.72;;
69951;SDS011;60406;48.408;13.392;2023-09-12T14:46:55;9.10;;;6.50;;
69951;SDS011;60406;48.408;13.392;2023-09-12T14:51:56;7.15;;;6.55;;
69951;SDS011;60406;48.408;13.392;2023-09-12T14:56:57;6.10;;;5.60;;
69951;SDS011;60406;48.408;13.392;2023-09-12T15:01:58;7.25;;;6.45;;
69951;SDS011;60406;48.408;13.392;2023-09-12T15:06:59;6.55;;;5.88;;
69951;SDS011;60406;48.408;13.392;2023-09-12T15:12:00;7.32;;;5.78;;
69951;SDS011;60406;48.408;13.392;2023-09-12T15:17:01;6.75;;;6.25;;
69951;SDS011;60406;48.408;13.392;2023-09-12T15:22:02;6.57;;;6.07;;
69951;SDS011;60406;48.408;13.392;2023-09-12T15:27:02;6.63;;;6.05;;
69951;SDS011;60406;48.408;13.392;2023-09-12T15:32:03;6.38;;;5.78;;
69951;SDS011;60406;48.408;13.392;2023-09-12T15:37:08;5.93;;;5.43;;
69951;SDS011;60406;48.408;13.392;2023-09-12T15:42:10;6.40;;;5.80;;
69951;SDS011;60406;48.408;13.392;2023-09-12T15:47:11;7.90;;;5.90;;
69951;SDS011;60406;48.408;13.392;2023-09-12T15:52:12;6.07;;;5.57;;
69951;SDS011;60406;48.408;13.392;2023-09-12T15:57:13;6.10;;;5.60;;
69951;SDS011;60406;48.408;13.392;2023-09-12T16:02:14;7.03;;;6.18;;
69951;SDS011;60406;48.408;13.392;2023-09-12T16:12:15;7.30;;;6.70;;
69951;SDS011;60406;48.408;13.392;2023-09-12T16:17:16;9.17;;;7.83;;
69951;SDS011;60406;48.408;13.392;2023-09-12T16:22:17;7.93;;;7.22;;
69951;SDS011;60406;48.408;13.392;2023-09-12T16:27:18;8.90;;;7.38;;
69951;SDS011;60406;48.408;13.392;2023-09-12T16:32:19;8.07;;;7.38;;
69951;SDS011;60406;48.408;13.392;2023-09-12T16:37:20;7.70;;;7.05;;
69951;SDS011;60406;48.408;13.392;2023-09-12T16:42:20;8.45;;;7.68;;
69951;SDS011;60406;48.408;13.392;2023-09-12T16:47:21;8.93;;;8.02;;
69951;SDS011;60406;48.408;13.392;2023-09-12T16:52:22;9.38;;;8.18;;
69951;SDS011;60406;48.408;13.392;2023-09-12T16:57:23;10.88;;;8.85;;
69951;SDS011;60406;48.408;13.392;2023-09-12T17:02:24;9.18;;;8.38;;
69951;SDS011;60406;48.408;13.392;2023-09-12T17:07:25;13.20;;;8.48;;
69951;SDS011;60406;48.408;13.392;2023-09-12T17:12:26;10.98;;;9.30;;
69951;SDS011;60406;48.408;13.392;2023-09-12T17:17:28;10.48;;;9.40;;
69951;SDS011;60406;48.408;13.392;2023-09-12T17:22:28;10.32;;;9.40;;
69951;SDS011;60406;48.408;13.392;2023-09-12T17:27:29;11.27;;;10.00;;
69951;SDS011;60406;48.408;13.392;2023-09-12T17:32:31;11.77;;;10.57;;
69951;SDS011;60406;48.408;13.392;2023-09-12T17:37:31;11.95;;;10.68;;
69951;SDS011;60406;48.408;13.392;2023-09-12T17:42:32;11.50;;;10.27;;
69951;SDS011;60406;48.408;13.392;2023-09-12T17:47:33;14.30;;;11.52;;
69951;SDS011;60406;48.408;13.392;2023-09-12T17:52:34;14.68;;;11.82;;
69951;SDS011;60406;48.408;13.392;2023-09-12T17:57:35;13.80;;;10.90;;
69951;SDS011;60406;48.408;13.392;2023-09-12T18:02:36;13.38;;;10.52;;
69951;SDS011;60406;48.408;13.392;2023-09-12T18:07:37;13.05;;;11.75;;
69951;SDS011;60406;48.408;13.392;2023-09-12T18:12:38;14.15;;;12.80;;
69951;SDS011;60406;48.408;13.392;2023-09-12T18:17:38;11.95;;;10.70;;
69951;SDS011;60406;48.408;13.392;2023-09-12T18:22:39;12.07;;;10.88;;
69951;SDS011;60406;48.408;13.392;2023-09-12T18:27:40;13.25;;;11.90;;
69951;SDS011;60406;48.408;13.392;2023-09-12T18:32:41;15.73;;;11.55;;
69951;SDS011;60406;48.408;13.392;2023-09-12T18:37:42;15.13;;;11.45;;
69951;SDS011;60406;48.408;13.392;2023-09-12T18:42:43;13.18;;;11.63;;
69951;SDS011;60406;48.408;13.392;2023-09-12T18:47:44;12.10;;;10.80;;
69951;SDS011;60406;48.408;13.392;2023-09-12T18:52:45;13.48;;;12.13;;
69951;SDS011;60406;48.408;13.392;2023-09-12T18:57:45;18.13;;;13.18;;
69951;SDS011;60406;48.408;13.392;2023-09-12T19:02:46;17.50;;;12.55;;
69951;SDS011;60406;48.408;13.392;2023-09-12T19:07:47;14.73;;;13.07;;
69951;SDS011;60406;48.408;13.392;2023-09-12T19:12:48;13.82;;;12.43;;
69951;SDS011;60406;48.408;13.392;2023-09-12T19:17:49;15.80;;;14.30;;
69951;SDS011;60406;48.408;13.392;2023-09-12T19:22:50;14.57;;;13.18;;
69951;SDS011;60406;48.408;13.392;2023-09-12T19:27:51;15.43;;;13.80;;
69951;SDS011;60406;48.408;13.392;2023-09-12T19:32:52;17.73;;;13.50;;
69951;SDS011;60406;48.408;13.392;2023-09-12T19:37:53;17.48;;;14.40;;
69951;SDS011;60406;48.408;13.392;2023-09-12T19:42:54;17.02;;;15.30;;
69951;SDS011;60406;48.408;13.392;2023-09-12T19:47:55;16.85;;;14.55;;
69951;SDS011;60406;48.408;13.392;2023-09-12T19:52:56;17.95;;;16.00;;
69951;SDS011;60406;48.408;13.392;2023-09-12T19:57:57;16.05;;;14.45;;
69951;SDS011;60406;48.408;13.392;2023-09-12T20:02:58;15.48;;;13.90;;
69951;SDS011;60406;48.408;13.392;2023-09-12T20:07:59;15.32;;;13.80;;
69951;SDS011;60406;48.408;13.392;2023-09-12T20:13:00;18.35;;;13.90;;
69951;SDS011;60406;48.408;13.392;2023-09-12T20:18:08;20.10;;;15.32;;
69951;SDS011;60406;48.408;13.392;2023-09-12T20:23:10;17.35;;;15.18;;
69951;SDS011;60406;48.408;13.392;2023-09-12T20:28:11;18.95;;;16.88;;
69951;SDS011;60406;48.408;13.392;2023-09-12T20:33:12;19.58;;;17.48;;
69951;SDS011;60406;48.408;13.392;2023-09-12T20:38:12;24.23;;;17.75;;
69951;SDS011;60406;48.408;13.392;2023-09-12T20:43:14;20.65;;;17.80;;
69951;SDS011;60406;48.408;13.392;2023-09-12T20:48:15;19.98;;;17.77;;
69951;SDS011;60406;48.408;13.392;2023-09-12T20:53:16;20.00;;;18.10;;
69951;SDS011;60406;48.408;13.392;2023-09-12T20:58:17;18.48;;;16.58;;
69951;SDS011;60406;48.408;13.392;2023-09-12T21:03:18;18.58;;;16.83;;
69951;SDS011;60406;48.408;13.392;2023-09-12T21:08:19;18.40;;;16.50;;
69951;SDS011;60406;48.408;13.392;2023-09-12T21:13:20;18.80;;;16.00;;
69951;SDS011;60406;48.408;13.392;2023-09-12T21:18:20;20.92;;;16.67;;
69951;SDS011;60406;48.408;13.392;2023-09-12T21:23:21;17.95;;;15.32;;
69951;SDS011;60406;48.408;13.392;2023-09-12T21:28:22;17.67;;;15.95;;
69951;SDS011;60406;48.408;13.392;2023-09-12T21:33:23;20.42;;;16.80;;
69951;SDS011;60406;48.408;13.392;2023-09-12T21:38:24;22.55;;;17.65;;
69951;SDS011;60406;48.408;13.392;2023-09-12T21:43:25;20.27;;;17.13;;
69951;SDS011;60406;48.408;13.392;2023-09-12T21:48:26;20.30;;;18.30;;
69951;SDS011;60406;48.408;13.392;2023-09-12T21:53:27;26.65;;;20.13;;
69951;SDS011;60406;48.408;13.392;2023-09-12T21:58:28;22.38;;;18.88;;
69951;SDS011;60406;48.408;13.392;2023-09-12T22:03:29;22.48;;;20.23;;
69951;SDS011;60406;48.408;13.392;2023-09-12T22:08:30;20.75;;;18.58;;
69951;SDS011;60406;48.408;13.392;2023-09-12T22:13:31;23.38;;;19.70;;
69951;SDS011;60406;48.408;13.392;2023-09-12T22:18:31;20.33;;;18.20;;
69951;SDS011;60406;48.408;13.392;2023-09-12T22:23:32;22.85;;;18.27;;
69951;SDS011;60406;48.408;13.392;2023-09-12T22:28:33;22.35;;;19.95;;
69951;SDS011;60406;48.408;13.392;2023-09-12T22:33:34;20.02;;;18.08;;
69951;SDS011;60406;48.408;13.392;2023-09-12T22:38:35;22.33;;;20.08;;
69951;SDS011;60406;48.408;13.392;2023-09-12T22:43:36;25.25;;;19.85;;
69951;SDS011;60406;48.408;13.392;2023-09-12T22:48:37;25.52;;;21.13;;
69951;SDS011;60406;48.408;13.392;2023-09-12T22:53:38;22.67;;;20.33;;
69951;SDS011;60406;48.408;13.392;2023-09-12T22:58:39;22.30;;;19.83;;
69951;SDS011;60406;48.408;13.392;2023-09-12T23:03:40;29.92;;;19.75;;
69951;SDS011;60406;48.408;13.392;2023-09-12T23:08:41;21.65;;;19.35;;
69951;SDS011;60406;48.408;13.392;2023-09-12T23:13:42;27.83;;;20.50;;
69951;SDS011;60406;48.408;13.392;2023-09-12T23:18:43;22.92;;;20.48;;
69951;SDS011;60406;48.408;13.392;2023-09-12T23:23:43;23.83;;;21.15;;
69951;SDS011;60406;48.408;13.392;2023-09-12T23:28:44;25.38;;;22.70;;
69951;SDS011;60406;48.408;13.392;2023-09-12T23:33:45;23.75;;;21.25;;
69951;SDS011;60406;48.408;13.392;2023-09-12T23:38:46;29.85;;;24.20;;
69951;SDS011;60406;48.408;13.392;2023-09-12T23:43:47;27.83;;;23.75;;
69951;SDS011;60406;48.408;13.392;2023-09-12T23:48:48;31.30;;;23.58;;
69951;SDS011;60406;48.408;13.392;2023-09-12T23:53:49;29.42;;;22.42;;
69951;SDS011;60406;48.408;13.392;2023-09-12T23:58:50;25.70;;;23.08;;
